Time;durP1;ratioP1;P1;durP2;ratioP2;P2;SDS_P1;SDS_P2;PMS_P1;PMS_P2;Temp;Humidity;BMP_temperature;BMP_pressure;BME280_temperature;BME280_humidity;BME280_pressure;Samples;Min_cycle;Max_cycle;Signal;HPM_P1;HPM_P2
2023/12/15 00:01:38;;;;;;;5.90;3.05;;;;;;;6.79;68.10;94782.09;5085453;28;20483;-79
2023/12/15 00:04:03;;;;;;;7.28;3.13;;;;;;;6.69;68.44;94778.34;5085551;28;20024;-79
2023/12/15 00:06:29;;;;;;;1.10;0.70;;;;;;;6.80;68.23;94791.81;5085018;28;20524;-79
2023/12/15 00:08:54;;;;;;;0.85;0.50;;;;;;;6.73;68.07;94787.25;5085794;28;20130;-79
2023/12/15 00:11:20;;;;;;;1.00;0.60;;;;;;;6.72;68.32;94791.19;5085405;28;20055;-79
2023/12/15 00:13:45;;;;;;;0.50;0.38;;;;;;;6.72;68.55;94791.19;5085469;28;20036;-78
2023/12/15 00:16:10;;;;;;;0.60;0.55;;;;;;;6.70;68.72;94798.22;5084860;28;20035;-79
2023/12/15 00:18:37;;;;;;;1.23;0.70;;;;;;;6.71;68.58;94799.75;5086356;28;20094;-79
2023/12/15 00:21:03;;;;;;;1.15;0.57;;;;;;;6.74;68.78;94804.41;5085951;28;20032;-79
2023/12/15 00:23:28;;;;;;;1.13;0.60;;;;;;;6.76;68.69;94810.22;5087078;28;20302;-79
2023/12/15 00:25:54;;;;;;;1.00;0.47;;;;;;;6.83;68.45;94812.84;5083966;28;20449;-79
2023/12/15 00:28:19;;;;;;;1.40;0.40;;;;;;;6.82;68.40;94811.28;5085244;28;20430;-78
2023/12/15 00:30:44;;;;;;;0.90;0.52;;;;;;;6.77;67.99;94814.53;5083771;28;20089;-79
2023/12/15 00:33:10;;;;;;;0.45;0.30;;;;;;;6.71;68.19;94805.22;5086243;28;20037;-79
2023/12/15 00:35:36;;;;;;;0.32;0.30;;;;;;;6.79;68.43;94809.41;5085460;28;20024;-79
2023/12/15 00:38:01;;;;;;;0.75;0.43;;;;;;;6.86;68.12;94820.22;5085748;28;20032;-79
2023/12/15 00:40:26;;;;;;;0.88;0.50;;;;;;;6.81;68.39;94807.03;5085864;28;20477;-78
2023/12/15 00:42:52;;;;;;;0.50;0.40;;;;;;;6.82;68.34;94817.53;5083457;28;20028;-79
2023/12/15 00:45:17;;;;;;;0.55;0.50;;;;;;;6.92;68.24;94824.00;5086596;28;20320;-80
2023/12/15 00:47:43;;;;;;;0.93;0.50;;;;;;;6.89;68.23;94828.38;5084774;28;20032;-78
2023/12/15 00:50:08;;;;;;;0.90;0.45;;;;;;;6.90;68.34;94840.06;5086296;28;20032;-78
2023/12/15 00:52:34;;;;;;;1.17;0.70;;;;;;;6.87;68.31;94843.63;5067110;28;20027;-80
2023/12/15 00:54:59;;;;;;;0.75;0.57;;;;;;;6.88;68.30;94840.50;5085820;28;20059;-80
2023/12/15 00:57:24;;;;;;;0.52;0.40;;;;;;;6.73;68.62;94827.47;5085859;28;20036;-78
2023/12/15 00:59:50;;;;;;;1.08;0.55;;;;;;;6.89;68.69;94844.75;5066981;28;20024;-79
2023/12/15 01:02:15;;;;;;;0.68;0.50;;;;;;;6.81;68.59;94846.03;5086439;28;20100;-78
2023/12/15 01:04:40;;;;;;;1.00;0.75;;;;;;;6.77;68.72;94848.09;5066445;28;20347;-78
2023/12/15 01:07:06;;;;;;;0.77;0.50;;;;;;;6.85;68.91;94856.94;5085964;28;20100;-78
2023/12/15 01:09:31;;;;;;;0.70;0.50;;;;;;;6.83;69.05;94854.63;5085193;28;20028;-78
2023/12/15 01:11:57;;;;;;;1.27;0.50;;;;;;;6.90;68.87;94848.25;5067727;28;20024;-77
2023/12/15 01:14:22;;;;;;;0.70;0.45;;;;;;;6.88;69.01;94850.63;5085236;28;20043;-78
2023/12/15 01:16:49;;;;;;;1.50;0.63;;;;;;;6.88;68.87;94856.88;5083909;28;20422;-78
2023/12/15 01:19:15;;;;;;;0.63;0.50;;;;;;;6.94;68.86;94851.72;5067542;28;20417;-78
2023/12/15 01:21:40;;;;;;;1.80;0.60;;;;;;;6.92;69.14;94851.34;5083223;28;20047;-78
2023/12/15 01:24:06;;;;;;;0.88;0.60;;;;;;;6.91;68.83;94847.84;5086158;28;20487;-78
2023/12/15 01:26:31;;;;;;;0.90;0.60;;;;;;;6.98;68.94;94852.41;5083358;28;20034;-78
2023/12/15 01:28:57;;;;;;;0.90;0.60;;;;;;;6.95;68.51;94866.94;5084594;28;20035;-78
2023/12/15 01:31:22;;;;;;;0.70;0.60;;;;;;;7.00;68.74;94860.22;5085266;28;20024;-78
2023/12/15 01:33:47;;;;;;;0.88;0.45;;;;;;;6.95;68.42;94860.69;5085521;28;20020;-78
2023/12/15 01:36:13;;;;;;;1.38;0.50;;;;;;;6.89;68.59;94866.63;5083919;28;20039;-78
2023/12/15 01:38:38;;;;;;;1.15;0.57;;;;;;;6.90;68.70;94867.41;5085119;28;20020;-78
2023/12/15 01:41:04;;;;;;;0.90;0.50;;;;;;;6.91;69.22;94875.16;5084459;28;20742;-78
2023/12/15 01:43:30;;;;;;;0.50;0.43;;;;;;;6.97;69.04;94877.44;5083060;28;20077;-78
2023/12/15 01:45:55;;;;;;;0.90;0.60;;;;;;;7.01;69.03;94876.19;5085523;28;20035;-78
2023/12/15 01:48:22;;;;;;;0.90;0.50;;;;;;;7.02;68.75;94880.47;5084669;28;20020;-78
2023/12/15 01:50:47;;;;;;;1.33;0.70;;;;;;;7.01;69.00;94868.00;5084224;28;20105;-78
2023/12/15 01:53:13;;;;;;;0.73;0.50;;;;;;;7.11;68.69;94869.00;5087562;28;20478;-78
2023/12/15 01:55:38;;;;;;;0.80;0.60;;;;;;;7.21;68.44;94868.03;5088754;28;20427;-79
2023/12/15 01:58:03;;;;;;;0.98;0.60;;;;;;;7.07;68.58;94866.34;5087780;28;20397;-78
2023/12/15 02:00:29;;;;;;;1.10;0.65;;;;;;;7.05;68.82;94868.69;5088115;28;20414;-77
2023/12/15 02:02:54;;;;;;;0.82;0.73;;;;;;;7.07;68.94;94866.34;5089003;28;20043;-78
2023/12/15 02:05:19;;;;;;;1.00;0.90;;;;;;;7.01;69.29;94867.22;5087755;28;20028;-78
2023/12/15 02:07:45;;;;;;;1.50;0.95;;;;;;;7.09;68.99;94872.16;5087222;28;20035;-79
2023/12/15 02:10:10;;;;;;;1.58;0.90;;;;;;;7.00;69.10;94882.09;5088246;28;20498;-78
2023/12/15 02:12:36;;;;;;;1.67;0.80;;;;;;;6.99;69.48;94881.28;5088217;28;20115;-79
2023/12/15 02:15:01;;;;;;;1.42;0.90;;;;;;;7.03;69.43;94879.28;5087187;28;20032;-78
2023/12/15 02:17:26;;;;;;;1.70;1.10;;;;;;;7.01;69.40;94883.63;5088418;28;20039;-78
2023/12/15 02:19:52;;;;;;;2.15;1.00;;;;;;;7.02;69.60;94879.69;5070377;28;20522;-79
2023/12/15 02:22:25;;;;;;;1.88;1.17;;;;;;;7.05;69.20;94889.78;5086089;28;20051;-79
2023/12/15 02:24:51;;;;;;;2.00;1.10;;;;;;;7.06;69.31;94874.97;5087235;28;20354;-78
2023/12/15 02:27:16;;;;;;;1.80;1.15;;;;;;;6.97;68.95;94889.13;5087717;28;20672;-79
2023/12/15 02:29:42;;;;;;;1.38;1.05;;;;;;;6.98;69.58;94892.63;5088496;28;20109;-79
2023/12/15 02:32:07;;;;;;;2.17;1.30;;;;;;;6.90;69.65;94887.28;5087891;28;20047;-79
2023/12/15 02:34:32;;;;;;;1.67;1.10;;;;;;;6.89;69.57;94904.09;5088013;28;20364;-79
2023/12/15 02:36:58;;;;;;;1.75;1.20;;;;;;;6.95;69.67;94912.63;5088181;28;20459;-78
2023/12/15 02:39:23;;;;;;;2.03;1.33;;;;;;;6.85;69.69;94900.66;5087297;28;20099;-79
2023/12/15 02:41:48;;;;;;;2.17;1.40;;;;;;;6.82;69.85;94910.44;5088314;28;20031;-79
2023/12/15 02:44:14;;;;;;;2.53;1.98;;;;;;;6.75;70.21;94907.03;5087351;28;20024;-77
2023/12/15 02:46:39;;;;;;;2.25;1.60;;;;;;;6.71;70.24;94917.25;5087985;28;20036;-78
2023/12/15 02:49:04;;;;;;;2.55;2.10;;;;;;;6.62;70.46;94904.09;5087358;28;20474;-78
2023/12/15 02:51:31;;;;;;;2.50;2.00;;;;;;;6.75;70.54;94912.50;5088035;28;20032;-79
2023/12/15 02:53:57;;;;;;;2.53;1.70;;;;;;;6.77;70.82;94919.13;5086158;28;20039;-79
2023/12/15 02:56:23;;;;;;;2.60;2.00;;;;;;;6.77;70.38;94916.38;5087241;28;20135;-79
2023/12/15 02:58:48;;;;;;;3.03;2.03;;;;;;;6.69;70.09;94908.69;5086648;28;20368;-79
2023/12/15 03:01:14;;;;;;;4.07;2.85;;;;;;;6.79;70.45;94922.19;5086959;28;20559;-79
2023/12/15 03:03:39;;;;;;;3.75;2.45;;;;;;;6.81;70.57;94930.75;5085513;28;20028;-79
2023/12/15 03:06:05;;;;;;;3.60;3.08;;;;;;;6.81;70.36;94921.78;5086873;28;20525;-79
2023/12/15 03:08:30;;;;;;;4.07;3.35;;;;;;;6.83;70.23;94927.63;5087572;28;20050;-79
2023/12/15 03:10:57;;;;;;;4.13;3.60;;;;;;;6.82;70.32;94935.03;5087208;28;20114;-78
2023/12/15 03:13:24;;;;;;;4.43;3.15;;;;;;;6.83;70.38;94933.09;5085634;28;20078;-79
2023/12/15 03:15:50;;;;;;;4.40;3.55;;;;;;;6.80;69.84;94931.94;5085960;28;20118;-79
2023/12/15 03:18:16;;;;;;;5.18;3.70;;;;;;;6.84;70.05;94931.91;5086673;28;20523;-78
2023/12/15 03:20:41;;;;;;;5.35;3.97;;;;;;;6.73;70.23;94942.97;5087509;28;20080;-79
2023/12/15 03:23:08;;;;;;;4.93;3.90;;;;;;;6.78;70.23;94949.94;5085021;28;20028;-79
2023/12/15 03:25:33;;;;;;;5.80;3.97;;;;;;;6.78;70.18;94939.78;5086206;28;20107;-78
2023/12/15 03:28:00;;;;;;;5.88;4.38;;;;;;;6.80;70.19;94940.13;5085168;28;20541;-79
2023/12/15 03:30:25;;;;;;;6.35;4.70;;;;;;;6.93;70.05;94948.53;5085602;28;20159;-79
2023/12/15 03:32:51;;;;;;;5.80;4.28;;;;;;;6.98;69.17;94953.53;5086831;28;20186;-80
2023/12/15 03:35:16;;;;;;;5.65;4.93;;;;;;;7.03;69.03;94949.56;5068277;28;20027;-79
2023/12/15 03:37:42;;;;;;;6.72;4.85;;;;;;;6.93;69.28;94941.09;5085731;28;20028;-80
2023/12/15 03:40:07;;;;;;;5.68;4.40;;;;;;;7.01;69.37;94960.16;5086431;28;20020;-79
2023/12/15 03:42:33;;;;;;;5.95;4.53;;;;;;;7.03;68.98;94957.78;5085815;28;20417;-79
2023/12/15 03:44:58;;;;;;;7.70;5.28;;;;;;;6.97;69.21;94957.47;5085753;28;20028;-79
2023/12/15 03:47:23;;;;;;;6.72;4.97;;;;;;;6.89;69.04;94958.75;5085660;28;20466;-78
2023/12/15 03:49:49;;;;;;;8.07;5.45;;;;;;;6.92;69.39;94958.69;5084737;28;20020;-79
2023/12/15 03:52:14;;;;;;;7.40;5.18;;;;;;;6.90;69.15;94961.06;5068106;28;20078;-78
2023/12/15 03:54:39;;;;;;;7.60;5.32;;;;;;;6.95;68.87;94962.59;5086862;28;20072;-79
2023/12/15 03:57:05;;;;;;;8.35;5.40;;;;;;;6.92;68.53;94971.59;5085897;28;20483;-78
2023/12/15 03:59:30;;;;;;;7.22;6.28;;;;;;;6.86;68.66;94945.91;5087120;28;20568;-79
2023/12/15 04:01:56;;;;;;;10.25;5.95;;;;;;;6.98;68.17;94969.94;5085714;28;20313;-78
2023/12/15 04:04:21;;;;;;;6.57;5.65;;;;;;;7.03;67.86;94966.75;5085229;28;20396;-78
2023/12/15 04:06:47;;;;;;;7.60;5.65;;;;;;;6.99;68.16;94966.00;5084073;28;20487;-79
2023/12/15 04:09:12;;;;;;;7.78;6.03;;;;;;;6.98;68.23;94964.47;5085847;28;20016;-78
2023/12/15 04:11:38;;;;;;;8.52;6.85;;;;;;;6.98;68.55;94967.22;5083809;28;20042;-79
2023/12/15 04:14:04;;;;;;;9.23;6.10;;;;;;;7.01;68.55;94971.88;5082482;28;20085;-78
2023/12/15 04:16:29;;;;;;;8.18;6.38;;;;;;;7.02;68.33;94978.88;5086538;28;20088;-79
2023/12/15 04:18:55;;;;;;;8.13;6.60;;;;;;;7.05;68.26;94971.78;5085202;28;20452;-79
2023/12/15 04:21:20;;;;;;;9.52;7.03;;;;;;;7.05;68.21;94960.84;5085341;28;20019;-78
2023/12/15 04:23:46;;;;;;;8.38;7.05;;;;;;;7.06;68.42;94976.88;5083827;28;20560;-80
2023/12/15 04:26:11;;;;;;;7.45;6.60;;;;;;;7.11;68.20;94973.66;5086160;28;20028;-79
2023/12/15 04:28:37;;;;;;;9.02;6.80;;;;;;;7.00;68.09;94970.31;5084353;28;20040;-79
2023/12/15 04:31:03;;;;;;;8.77;7.18;;;;;;;6.96;68.46;94977.00;5085694;28;20024;-79
2023/12/15 04:33:28;;;;;;;8.57;7.18;;;;;;;6.99;68.16;94985.16;5084795;28;20432;-78
2023/12/15 04:35:53;;;;;;;9.30;7.13;;;;;;;6.97;68.22;94976.59;5084005;28;20020;-79
2023/12/15 04:38:19;;;;;;;10.30;6.78;;;;;;;6.98;68.30;94983.59;5086625;28;20081;-79
2023/12/15 04:40:44;;;;;;;11.43;7.18;;;;;;;7.00;68.25;94986.72;5085295;28;20039;-79
2023/12/15 04:43:10;;;;;;;9.65;7.15;;;;;;;6.95;67.96;94986.41;5084913;28;20122;-77
2023/12/15 04:45:35;;;;;;;8.82;6.50;;;;;;;6.95;68.21;95000.06;5084308;28;20397;-78
2023/12/15 04:48:00;;;;;;;9.38;6.53;;;;;;;6.88;68.51;95004.44;5085416;28;20028;-78
2023/12/15 04:50:26;;;;;;;9.80;7.55;;;;;;;6.84;68.53;95008.41;5085657;28;20060;-78
2023/12/15 04:52:51;;;;;;;8.80;6.57;;;;;;;6.83;68.68;95010.38;5083756;28;20012;-78
2023/12/15 04:55:17;;;;;;;8.18;6.80;;;;;;;6.87;68.73;95019.28;5084946;28;20505;-78
2023/12/15 04:57:42;;;;;;;9.45;6.93;;;;;;;6.79;69.04;95011.59;5084981;28;20048;-79
2023/12/15 05:00:08;;;;;;;7.93;6.38;;;;;;;6.74;68.70;95014.78;5084948;28;20031;-78
2023/12/15 05:02:33;;;;;;;6.70;5.30;;;;;;;6.84;68.33;95020.13;5084912;28;20024;-78
2023/12/15 05:04:59;;;;;;;7.97;6.07;;;;;;;6.90;68.47;95031.38;5085629;28;20167;-78
2023/12/15 05:07:24;;;;;;;8.93;6.93;;;;;;;6.87;68.51;95029.44;5083805;28;20031;-77
2023/12/15 05:09:49;;;;;;;8.10;6.28;;;;;;;6.82;68.66;95021.69;5084003;28;20104;-79
2023/12/15 05:12:15;;;;;;;9.13;6.00;;;;;;;6.87;68.54;95032.94;5086040;28;20022;-79
2023/12/15 05:14:40;;;;;;;8.35;6.53;;;;;;;6.84;68.44;95019.34;5083612;28;20428;-78
2023/12/15 05:17:05;;;;;;;9.25;5.75;;;;;;;6.91;68.21;95030.16;5085839;28;20024;-79
2023/12/15 05:19:31;;;;;;;8.25;5.93;;;;;;;6.97;68.12;95044.16;5084784;28;20030;-78
2023/12/15 05:21:56;;;;;;;7.68;6.15;;;;;;;6.91;68.03;95035.63;5085643;28;20028;-78
2023/12/15 05:24:22;;;;;;;8.02;5.78;;;;;;;6.93;67.95;95039.50;5085265;28;20054;-77
2023/12/15 05:26:47;;;;;;;6.88;5.85;;;;;;;6.96;67.66;95040.66;5084119;28;20456;-78
2023/12/15 05:29:12;;;;;;;7.43;5.80;;;;;;;6.91;67.45;95036.41;5087959;28;20062;-79
2023/12/15 05:31:38;;;;;;;7.15;5.65;;;;;;;6.90;67.50;95048.53;5087597;28;20101;-77
2023/12/15 05:34:03;;;;;;;7.00;5.47;;;;;;;6.88;67.71;95052.84;5087916;28;20031;-78
2023/12/15 05:36:29;;;;;;;8.75;6.25;;;;;;;7.03;67.09;95058.91;5070291;28;20023;-78
2023/12/15 05:38:54;;;;;;;10.10;7.03;;;;;;;6.96;66.77;95050.81;5088185;28;20099;-78
2023/12/15 05:41:20;;;;;;;8.57;7.30;;;;;;;7.00;66.89;95071.44;5088873;28;20028;-78
2023/12/15 05:43:45;;;;;;;8.48;6.18;;;;;;;7.00;66.90;95074.19;5089006;28;20306;-78
2023/12/15 05:46:10;;;;;;;7.57;5.88;;;;;;;7.03;66.56;95070.63;5087241;28;20058;-79
2023/12/15 05:48:36;;;;;;;7.93;6.57;;;;;;;7.07;66.77;95082.28;5087727;28;20047;-79
2023/12/15 05:51:02;;;;;;;8.52;6.18;;;;;;;7.01;66.76;95077.69;5087579;28;20111;-78
2023/12/15 05:53:27;;;;;;;8.88;6.47;;;;;;;6.95;66.82;95074.63;5070051;28;20032;-78
2023/12/15 05:55:53;;;;;;;9.30;6.25;;;;;;;7.00;66.99;95078.88;5087982;28;20027;-79
2023/12/15 05:58:19;;;;;;;8.13;6.15;;;;;;;7.02;66.85;95085.47;5088263;28;20019;-79
2023/12/15 06:00:44;;;;;;;11.75;6.82;;;;;;;6.97;66.96;95080.47;5087718;28;20032;-78
2023/12/15 06:03:10;;;;;;;8.35;5.80;;;;;;;6.94;66.44;95081.28;5088083;28;20024;-79
2023/12/15 06:05:35;;;;;;;8.25;6.28;;;;;;;6.88;66.63;95083.69;5088549;28;20028;-78
2023/12/15 06:08:01;;;;;;;8.43;5.97;;;;;;;6.95;66.79;95099.25;5088022;28;20032;-79
2023/12/15 06:10:27;;;;;;;7.88;5.80;;;;;;;6.92;66.64;95097.31;5087080;28;20024;-78
2023/12/15 06:12:52;;;;;;;8.20;6.05;;;;;;;7.02;66.46;95090.16;5087135;28;20048;-79
2023/12/15 06:15:17;;;;;;;10.63;7.30;;;;;;;6.98;66.62;95097.63;5087805;28;20032;-78
2023/12/15 06:17:43;;;;;;;8.70;6.45;;;;;;;7.00;66.72;95100.75;5088781;28;20036;-78
2023/12/15 06:20:10;;;;;;;7.30;6.03;;;;;;;6.99;66.60;95089.00;5086189;28;20035;-79
2023/12/15 06:22:35;;;;;;;8.90;6.55;;;;;;;6.92;67.14;95103.53;5088461;28;20016;-77
2023/12/15 06:25:01;;;;;;;10.70;6.60;;;;;;;6.90;67.45;95102.41;5087957;28;20562;-78
2023/12/15 06:27:26;;;;;;;10.00;6.88;;;;;;;6.80;67.76;95112.28;5069819;28;20044;-79
2023/12/15 06:29:52;;;;;;;9.35;7.10;;;;;;;6.87;67.85;95114.16;5088091;28;20026;-78
2023/12/15 06:32:17;;;;;;;11.27;6.97;;;;;;;6.86;67.50;95102.44;5087590;28;20258;-80
2023/12/15 06:34:43;;;;;;;10.60;7.43;;;;;;;6.82;67.79;95118.09;5088623;28;20428;-78
2023/12/15 06:37:08;;;;;;;9.98;8.20;;;;;;;6.85;68.63;95130.97;5085820;28;20115;-79
2023/12/15 06:39:33;;;;;;;13.18;8.30;;;;;;;6.78;68.84;95125.59;5069104;28;20107;-78
2023/12/15 06:41:59;;;;;;;9.35;7.72;;;;;;;6.84;68.68;95129.41;5087613;28;20405;-79
2023/12/15 06:44:25;;;;;;;11.32;8.38;;;;;;;6.90;68.55;95133.25;5086685;28;20063;-79
2023/12/15 06:46:51;;;;;;;11.13;8.18;;;;;;;6.92;68.40;95135.56;5087653;28;20032;-79
2023/12/15 06:49:18;;;;;;;13.38;9.05;;;;;;;6.86;68.84;95132.50;5088069;28;20575;-79
2023/12/15 06:51:44;;;;;;;10.82;8.27;;;;;;;6.84;68.72;95131.38;5088404;28;20058;-78
2023/12/15 06:54:09;;;;;;;10.73;8.27;;;;;;;6.86;68.79;95143.44;5068793;28;20477;-79
2023/12/15 06:56:38;;;;;;;14.02;8.23;;;;;;;6.74;68.77;95130.31;5088487;28;20020;-76
2023/12/15 06:59:03;;;;;;;13.93;8.63;;;;;;;6.87;69.09;95152.41;5086788;28;20089;-74
2023/12/15 07:01:29;;;;;;;12.07;8.02;;;;;;;6.82;69.20;95159.09;5087766;28;20028;-74
2023/12/15 07:03:54;;;;;;;12.50;8.52;;;;;;;6.89;68.92;95164.50;5086783;28;20032;-74
2023/12/15 07:06:20;;;;;;;11.73;8.77;;;;;;;6.87;69.26;95157.88;5087019;28;20020;-75
2023/12/15 07:08:50;;;;;;;12.52;8.73;;;;;;;6.89;69.30;95169.97;5086251;28;20028;-73
2023/12/15 07:11:15;;;;;;;13.18;8.60;;;;;;;6.87;69.23;95179.75;5086770;28;20062;-73
2023/12/15 07:13:41;;;;;;;11.95;8.32;;;;;;;6.83;69.33;95173.56;5086291;28;20075;-74
2023/12/15 07:16:07;;;;;;;12.00;8.38;;;;;;;6.84;69.21;95183.31;5086164;28;20039;-74
2023/12/15 07:18:33;;;;;;;9.88;8.07;;;;;;;6.89;69.20;95180.13;5087547;28;20030;-74
2023/12/15 07:20:58;;;;;;;11.65;9.02;;;;;;;6.89;68.86;95172.69;5086469;28;20028;-73
2023/12/15 07:23:24;;;;;;;13.98;9.77;;;;;;;6.87;69.04;95174.28;5087443;28;20031;-75
2023/12/15 07:25:49;;;;;;;12.48;8.90;;;;;;;6.82;69.12;95170.03;5087110;28;20032;-74
2023/12/15 07:28:15;;;;;;;11.15;9.18;;;;;;;6.82;69.34;95172.75;5086512;28;20035;-75
2023/12/15 07:30:40;;;;;;;13.10;9.55;;;;;;;6.85;69.41;95176.66;5087982;28;20024;-75
2023/12/15 07:33:05;;;;;;;13.00;9.63;;;;;;;6.93;69.07;95183.56;5086148;28;20545;-75
2023/12/15 07:35:31;;;;;;;12.07;9.25;;;;;;;6.91;68.75;95184.00;5086041;28;20035;-75
2023/12/15 07:37:56;;;;;;;12.38;8.88;;;;;;;6.84;69.28;95188.75;5086124;28;20024;-73
2023/12/15 07:40:22;;;;;;;11.60;9.20;;;;;;;6.90;68.91;95198.06;5087060;28;20431;-73
2023/12/15 07:42:47;;;;;;;11.30;8.70;;;;;;;6.87;68.93;95196.13;5086467;28;20462;-74
2023/12/15 07:45:13;;;;;;;12.50;9.60;;;;;;;6.86;69.02;95197.31;5086033;28;20024;-73
2023/12/15 07:47:38;;;;;;;12.18;9.30;;;;;;;6.91;68.86;95205.84;5085750;28;20056;-75
2023/12/15 07:50:04;;;;;;;13.32;9.45;;;;;;;6.96;68.59;95201.91;5085522;28;20423;-74
2023/12/15 07:52:29;;;;;;;10.40;8.90;;;;;;;6.92;68.68;95212.09;5087350;28;20030;-73
2023/12/15 07:54:55;;;;;;;12.23;9.15;;;;;;;6.89;68.68;95216.44;5085708;28;20032;-74
2023/12/15 07:57:20;;;;;;;13.35;9.48;;;;;;;6.86;68.80;95213.72;5085549;28;20056;-74
2023/12/15 07:59:46;;;;;;;12.23;8.48;;;;;;;6.79;68.94;95213.78;5086123;28;20035;-74
2023/12/15 08:02:11;;;;;;;12.98;8.80;;;;;;;6.87;68.70;95218.78;5086492;28;20095;-73
2023/12/15 08:04:37;;;;;;;11.90;9.68;;;;;;;6.88;68.67;95231.28;5086500;28;20024;-74
2023/12/15 08:07:03;;;;;;;12.68;9.50;;;;;;;6.91;68.56;95243.34;5085833;28;20112;-74
2023/12/15 08:09:28;;;;;;;13.52;9.60;;;;;;;6.83;68.65;95239.91;5086931;28;20020;-74
2023/12/15 08:11:54;;;;;;;13.27;9.52;;;;;;;6.79;68.79;95244.63;5085508;28;20058;-75
2023/12/15 08:14:19;;;;;;;13.32;9.80;;;;;;;6.81;69.05;95249.69;5086348;28;20422;-75
2023/12/15 08:16:45;;;;;;;15.75;10.25;;;;;;;6.81;68.91;95255.16;5085921;28;20035;-74
2023/12/15 08:19:10;;;;;;;14.30;9.93;;;;;;;6.84;68.91;95259.81;5086164;28;20107;-74
2023/12/15 08:21:35;;;;;;;13.65;10.63;;;;;;;6.79;69.26;95265.72;5086020;28;20391;-75
2023/12/15 08:24:01;;;;;;;15.10;9.00;;;;;;;6.81;68.81;95261.38;5085713;28;20031;-75
2023/12/15 08:26:27;;;;;;;14.70;9.45;;;;;;;6.81;68.62;95258.66;5086324;28;20036;-74
2023/12/15 08:28:53;;;;;;;16.85;9.85;;;;;;;6.74;69.01;95260.69;5085482;28;20096;-75
2023/12/15 08:31:20;;;;;;;15.38;9.65;;;;;;;6.74;69.18;95260.69;5086587;28;20102;-85
2023/12/15 08:33:45;;;;;;;14.02;9.95;;;;;;;6.75;69.33;95260.28;5085729;28;20034;-75
2023/12/15 08:36:11;;;;;;;12.85;9.15;;;;;;;6.85;69.31;95264.09;5086051;28;20405;-73
2023/12/15 08:38:36;;;;;;;15.05;10.32;;;;;;;6.83;69.25;95261.78;5085885;28;20016;-74
2023/12/15 08:41:02;;;;;;;14.45;10.25;;;;;;;6.83;69.34;95264.50;5084431;28;20020;-73
2023/12/15 08:43:28;;;;;;;17.27;10.13;;;;;;;6.86;69.08;95263.69;5085755;28;20024;-74
2023/12/15 08:45:54;;;;;;;14.50;10.27;;;;;;;6.83;68.97;95264.50;5085486;28;20085;-74
2023/12/15 08:48:19;;;;;;;12.95;10.20;;;;;;;6.88;69.04;95276.94;5086125;28;20051;-75
2023/12/15 08:50:44;;;;;;;14.57;9.90;;;;;;;6.87;69.05;95259.00;5085268;28;20030;-74
2023/12/15 08:53:12;;;;;;;14.63;11.32;;;;;;;6.97;68.76;95268.28;5086062;28;20422;-76
2023/12/15 08:55:37;;;;;;;10.18;8.10;;;;;;;6.99;68.65;95274.09;5085207;28;20033;-73
2023/12/15 08:58:03;;;;;;;13.80;10.18;;;;;;;7.02;68.34;95279.56;5085938;28;20012;-77
2023/12/15 09:00:28;;;;;;;14.38;9.38;;;;;;;6.99;68.48;95271.38;5085824;28;20509;-74
2023/12/15 09:02:53;;;;;;;13.70;10.20;;;;;;;7.01;68.06;95271.75;5087337;28;20529;-74
2023/12/15 09:05:23;;;;;;;14.90;11.30;;;;;;;6.99;68.22;95271.38;5089841;28;20016;-75
2023/12/15 09:07:52;;;;;;;18.90;13.30;;;;;;;7.08;67.95;95269.72;5089081;28;20090;-79
2023/12/15 09:10:18;;;;;;;17.63;12.15;;;;;;;6.96;68.05;95255.81;5088823;28;20028;-83
2023/12/15 09:12:44;;;;;;;18.58;11.77;;;;;;;7.02;68.35;95267.84;5089153;28;20105;-85
2023/12/15 09:15:09;;;;;;;14.68;10.35;;;;;;;6.98;68.58;95267.09;5089676;28;20467;-75
2023/12/15 09:17:34;;;;;;;14.80;9.80;;;;;;;6.97;68.73;95263.59;5089404;28;20020;-74
2023/12/15 09:20:00;;;;;;;12.27;9.55;;;;;;;7.03;68.44;95259.22;5089250;28;20024;-75
2023/12/15 09:22:25;;;;;;;13.50;9.48;;;;;;;7.16;67.95;95270.41;5089583;28;20054;-75
2023/12/15 09:24:51;;;;;;;12.93;9.40;;;;;;;7.08;68.25;95264.25;5089169;28;20442;-74
2023/12/15 09:27:17;;;;;;;19.38;14.70;;;;;;;7.13;69.27;95271.25;5089644;28;20521;-77
2023/12/15 09:29:42;;;;;;;18.42;13.65;;;;;;;7.12;69.54;95265.00;5089078;28;20020;-74
2023/12/15 09:32:08;;;;;;;18.52;12.73;;;;;;;7.12;69.94;95261.50;5088086;28;20024;-77
2023/12/15 09:34:33;;;;;;;17.60;12.50;;;;;;;7.15;70.10;95260.66;5088783;28;20024;-76
2023/12/15 09:36:59;;;;;;;18.75;13.48;;;;;;;7.12;70.11;95267.75;5088869;28;20067;-74
2023/12/15 09:39:24;;;;;;;14.93;10.60;;;;;;;7.14;69.89;95259.13;5088919;28;20175;-75
2023/12/15 09:41:50;;;;;;;16.63;11.57;;;;;;;7.26;69.80;95264.06;5088822;28;20032;-75
2023/12/15 09:44:16;;;;;;;17.13;10.40;;;;;;;7.36;68.71;95263.19;5089379;28;20032;-75
2023/12/15 09:46:42;;;;;;;15.02;10.50;;;;;;;7.37;68.82;95263.97;5088584;28;20024;-75
2023/12/15 09:49:10;;;;;;;17.73;10.85;;;;;;;7.37;69.09;95251.06;5089056;28;20021;-73
2023/12/15 09:51:36;;;;;;;15.45;10.70;;;;;;;7.34;69.06;95253.81;5088369;28;20031;-77
2023/12/15 09:54:01;;;;;;;14.10;10.07;;;;;;;7.40;68.33;95257.69;5088826;28;20020;-78
2023/12/15 09:56:27;;;;;;;15.45;10.30;;;;;;;7.39;68.10;95267.06;5088599;28;20150;-81
2023/12/15 09:58:53;;;;;;;16.42;10.35;;;;;;;7.38;67.96;95269.00;5088560;28;20024;-78
2023/12/15 10:01:19;;;;;;;15.23;10.32;;;;;;;7.35;67.82;95266.34;5088813;28;20027;-78
2023/12/15 10:03:44;;;;;;;14.82;10.85;;;;;;;7.38;68.01;95276.44;5087974;28;20538;-77
2023/12/15 10:06:10;;;;;;;14.40;10.43;;;;;;;7.38;68.03;95269.00;5088829;28;20078;-78
2023/12/15 10:08:43;;;;;;;15.40;10.30;;;;;;;7.34;68.26;95262.03;5086582;28;20117;-75
2023/12/15 10:11:09;;;;;;;16.83;10.40;;;;;;;7.34;68.35;95267.50;5088724;28;20115;-74
2023/12/15 10:13:34;;;;;;;14.52;10.45;;;;;;;7.37;68.06;95274.91;5086418;28;20166;-74
2023/12/15 10:16:00;;;;;;;14.27;10.93;;;;;;;7.42;68.11;95274.47;5088079;28;20414;-75
2023/12/15 10:18:26;;;;;;;15.52;10.23;;;;;;;7.35;67.80;95263.59;5086933;28;20059;-76
2023/12/15 10:20:53;;;;;;;15.90;11.20;;;;;;;7.45;67.74;95270.88;5087835;28;20384;-74
2023/12/15 10:23:26;;;;;;;15.93;11.13;;;;;;;7.35;68.35;95282.75;5087129;28;20026;-75
2023/12/15 10:25:53;;;;;;;17.45;12.27;;;;;;;7.43;68.03;95284.22;5087764;28;20021;-76
2023/12/15 10:28:18;;;;;;;17.02;12.27;;;;;;;7.34;68.21;95289.38;5088373;28;20498;-76
2023/12/15 10:30:44;;;;;;;17.20;11.95;;;;;;;7.32;68.38;95289.78;5088033;28;20024;-76
2023/12/15 10:33:09;;;;;;;18.50;13.63;;;;;;;7.33;68.61;95288.59;5087809;28;20106;-76
2023/12/15 10:35:35;;;;;;;18.33;12.10;;;;;;;7.28;68.83;95285.53;5088175;28;20024;-76
2023/12/15 10:38:01;;;;;;;16.70;11.13;;;;;;;7.29;68.96;95289.84;5086120;28;20023;-77
2023/12/15 10:40:26;;;;;;;17.70;11.15;;;;;;;7.26;68.86;95283.22;5088408;28;20024;-73
2023/12/15 10:42:52;;;;;;;18.35;12.63;;;;;;;7.23;69.24;95286.00;5085936;28;20028;-76
2023/12/15 10:45:19;;;;;;;21.23;13.10;;;;;;;7.19;69.49;95284.06;5087073;28;20024;-76
2023/12/15 10:47:46;;;;;;;25.90;14.10;;;;;;;7.22;69.56;95284.44;5085853;28;20028;-75
2023/12/15 10:50:12;;;;;;;18.52;12.65;;;;;;;7.27;69.09;95286.72;5087760;28;20514;-76
2023/12/15 10:52:39;;;;;;;16.13;11.10;;;;;;;7.26;69.01;95296.88;5086294;28;20020;-77
2023/12/15 10:55:06;;;;;;;20.10;13.02;;;;;;;7.22;69.56;95304.34;5085879;28;20024;-74
2023/12/15 10:57:32;;;;;;;19.15;12.07;;;;;;;7.17;69.88;95304.81;5087977;28;20035;-77
2023/12/15 10:59:57;;;;;;;16.23;10.80;;;;;;;7.22;69.66;95309.03;5087185;28;20023;-76
2023/12/15 11:02:27;;;;;;;18.25;12.60;;;;;;;7.17;69.98;95313.78;5087826;28;20107;-76
2023/12/15 11:04:54;;;;;;;17.85;12.48;;;;;;;7.16;69.88;95314.94;5085880;28;20110;-76
2023/12/15 11:07:21;;;;;;;20.92;13.95;;;;;;;7.19;69.76;95308.69;5086118;28;20104;-76
2023/12/15 11:09:47;;;;;;;18.00;13.05;;;;;;;7.17;69.75;95308.31;5087778;28;20028;-76
2023/12/15 11:12:22;;;;;;;18.00;13.25;;;;;;;7.22;69.96;95322.72;5085621;28;20628;-75
2023/12/15 11:14:58;;;;;;;17.83;12.82;;;;;;;7.17;70.14;95319.25;5087671;28;20035;-75
2023/12/15 11:17:24;;;;;;;20.38;14.30;;;;;;;7.24;70.13;95323.09;5086834;28;20030;-76
2023/12/15 11:19:53;;;;;;;24.15;15.13;;;;;;;7.22;70.03;95311.78;5087803;28;20024;-75
2023/12/15 11:22:18;;;;;;;19.55;14.50;;;;;;;7.23;70.11;95314.13;5085249;28;20063;-78
2023/12/15 11:24:44;;;;;;;21.52;14.35;;;;;;;7.26;69.67;95313.28;5086724;28;20047;-75
2023/12/15 11:27:13;;;;;;;23.67;16.05;;;;;;;7.23;69.70;95308.66;5087455;28;20024;-76
2023/12/15 11:29:40;;;;;;;19.95;13.48;;;;;;;7.26;69.46;95315.25;5086883;28;20111;-76